createdAt,value
2023-05-09T00:01:37.537Z,5.00
2023-05-09T00:04:05.107Z,4.90
2023-05-09T00:06:32.566Z,4.53
2023-05-09T00:08:59.896Z,4.93
2023-05-09T00:11:27.258Z,5.77
2023-05-09T00:13:54.591Z,5.30
2023-05-09T00:16:24.115Z,5.13
2023-05-09T00:18:51.517Z,5.20
2023-05-09T00:21:19.240Z,4.80
2023-05-09T00:23:47.750Z,5.07
2023-05-09T00:26:16.021Z,5.27
2023-05-09T00:28:44.514Z,4.80
2023-05-09T00:31:12.015Z,5.33
2023-05-09T00:33:39.958Z,5.40
2023-05-09T00:36:07.889Z,4.60
2023-05-09T00:38:35.186Z,4.87
2023-05-09T00:41:02.700Z,5.40
2023-05-09T00:43:30.350Z,5.27
2023-05-09T00:45:57.909Z,5.23
2023-05-09T00:48:25.394Z,5.50
2023-05-09T00:50:53.298Z,4.80
2023-05-09T00:53:21.170Z,4.83
2023-05-09T00:55:49.132Z,4.90
2023-05-09T00:58:17.081Z,5.50
2023-05-09T01:00:44.476Z,5.60
2023-05-09T01:03:12.050Z,4.90
2023-05-09T01:06:05.186Z,5.00
2023-05-09T01:08:44.637Z,5.23
2023-05-09T01:11:29.352Z,5.60
2023-05-09T01:14:11.734Z,5.47
2023-05-09T01:16:45.951Z,5.40
2023-05-09T01:19:50.904Z,5.67
2023-05-09T01:22:20.661Z,5.57
2023-05-09T01:25:10.944Z,5.90
2023-05-09T01:27:56.047Z,5.30
2023-05-09T01:30:26.640Z,5.60
2023-05-09T01:32:59.527Z,5.63
2023-05-09T01:35:31.239Z,6.10
2023-05-09T01:37:59.363Z,6.40
2023-05-09T01:40:33.443Z,5.80
2023-05-09T01:43:07.079Z,5.80
2023-05-09T01:45:36.727Z,6.30
2023-05-09T01:48:07.089Z,6.20
2023-05-09T01:50:36.072Z,6.07
2023-05-09T01:53:05.808Z,5.90
2023-05-09T01:55:36.445Z,5.53
2023-05-09T01:58:08.184Z,6.47
2023-05-09T02:00:36.558Z,6.27
2023-05-09T02:03:05.108Z,5.60
2023-05-09T02:05:34.928Z,5.87
2023-05-09T02:08:02.310Z,6.50
2023-05-09T02:10:33.798Z,6.43
2023-05-09T02:13:01.475Z,6.60
2023-05-09T02:15:30.137Z,5.90
2023-05-09T02:17:57.505Z,5.77
2023-05-09T02:20:25.002Z,5.40
2023-05-09T02:22:53.454Z,6.00
2023-05-09T02:25:20.897Z,6.13
2023-05-09T02:27:48.631Z,5.83
2023-05-09T02:30:23.508Z,6.53
2023-05-09T02:33:00.116Z,6.20
2023-05-09T02:35:28.374Z,6.37
2023-05-09T02:37:58.905Z,6.77
2023-05-09T02:40:28.098Z,6.50
2023-05-09T02:42:55.938Z,6.20
2023-05-09T02:45:23.465Z,5.97
2023-05-09T02:47:51.384Z,6.27
2023-05-09T02:50:19.098Z,6.50
2023-05-09T02:52:46.507Z,6.03
2023-05-09T02:55:14.503Z,5.67
2023-05-09T02:57:44.324Z,5.77
2023-05-09T03:00:12.351Z,6.53
2023-05-09T03:02:40.031Z,6.10
2023-05-09T03:05:14.234Z,5.47
2023-05-09T03:07:42.034Z,5.37
2023-05-09T03:10:12.146Z,5.73
2023-05-09T03:12:40.185Z,5.60
2023-05-09T03:15:08.331Z,5.00
2023-05-09T03:17:36.201Z,5.17
2023-05-09T03:20:05.753Z,4.73
2023-05-09T03:22:33.530Z,4.93
2023-05-09T03:25:04.483Z,5.10
2023-05-09T03:27:32.027Z,4.60
2023-05-09T03:29:59.590Z,4.43
2023-05-09T03:32:27.415Z,4.87
2023-05-09T03:34:54.962Z,4.83
2023-05-09T03:37:22.821Z,4.57
2023-05-09T03:39:50.680Z,4.03
2023-05-09T03:42:18.146Z,4.93
2023-05-09T03:44:48.731Z,4.63
2023-05-09T03:47:17.529Z,4.97
2023-05-09T03:49:45.079Z,4.87
2023-05-09T03:52:13.208Z,4.97
2023-05-09T03:54:41.219Z,4.53
2023-05-09T03:57:09.333Z,4.53
2023-05-09T03:59:36.822Z,4.30
2023-05-09T04:02:04.932Z,4.57
2023-05-09T04:04:32.370Z,4.20
2023-05-09T04:07:02.948Z,4.50
2023-05-09T04:09:30.928Z,4.10
2023-05-09T04:11:58.237Z,4.10
2023-05-09T04:14:26.213Z,4.17
2023-05-09T04:16:53.550Z,4.00
2023-05-09T04:19:21.266Z,4.50
2023-05-09T04:21:48.575Z,4.33
2023-05-09T04:24:16.081Z,4.40
2023-05-09T04:26:46.154Z,4.20
2023-05-09T04:29:17.336Z,4.23
2023-05-09T04:31:50.618Z,4.47
2023-05-09T04:34:19.376Z,4.23
2023-05-09T04:36:46.804Z,4.13
2023-05-09T04:39:14.296Z,4.60
2023-05-09T04:41:50.942Z,4.30
2023-05-09T04:44:18.690Z,4.00
2023-05-09T04:46:46.499Z,4.60
2023-05-09T04:49:15.230Z,4.20
2023-05-09T04:51:42.575Z,5.10
2023-05-09T04:54:10.602Z,5.40
2023-05-09T04:56:40.163Z,4.70
2023-05-09T04:59:07.535Z,4.80
2023-05-09T05:01:35.094Z,4.83
2023-05-09T05:04:02.885Z,5.20
2023-05-09T05:06:32.744Z,8.20
2023-05-09T05:09:00.671Z,4.10
2023-05-09T05:11:28.344Z,4.23
2023-05-09T05:13:56.027Z,3.70
2023-05-09T05:16:23.755Z,3.60
2023-05-09T05:18:51.196Z,3.60
2023-05-09T05:21:20.208Z,3.90
2023-05-09T05:23:47.644Z,4.10
2023-05-09T05:26:15.985Z,3.90
2023-05-09T05:28:43.504Z,3.40
2023-05-09T05:31:11.337Z,3.70
2023-05-09T05:33:38.670Z,4.60
2023-05-09T05:36:06.720Z,3.97
2023-05-09T05:38:34.064Z,4.03
2023-05-09T05:41:01.708Z,3.50
2023-05-09T05:43:31.321Z,3.20
2023-05-09T05:45:58.939Z,3.97
2023-05-09T05:48:28.634Z,4.00
2023-05-09T05:50:56.378Z,3.93
2023-05-09T05:53:27.786Z,3.10
2023-05-09T05:55:55.443Z,3.47
2023-05-09T05:58:23.038Z,3.77
2023-05-09T06:00:52.415Z,3.17
2023-05-09T06:03:20.343Z,3.50
2023-05-09T06:05:52.414Z,3.00
2023-05-09T06:08:19.762Z,3.43
2023-05-09T06:10:47.468Z,3.83
2023-05-09T06:13:14.849Z,3.30
2023-05-09T06:15:47.734Z,3.30
2023-05-09T06:18:15.657Z,3.57
2023-05-09T06:20:42.918Z,3.40
2023-05-09T06:23:10.456Z,3.37
2023-05-09T06:25:38.095Z,3.43
2023-05-09T06:28:05.489Z,3.10
2023-05-09T06:30:32.928Z,3.47
2023-05-09T06:33:00.368Z,3.10
2023-05-09T06:35:27.783Z,3.40
2023-05-09T06:37:55.070Z,3.23
2023-05-09T06:40:22.425Z,3.87
2023-05-09T06:42:49.850Z,3.50
2023-05-09T06:45:17.474Z,3.53
2023-05-09T06:47:45.098Z,3.10
2023-05-09T06:50:12.594Z,3.70
2023-05-09T06:52:39.968Z,3.57
2023-05-09T06:55:08.372Z,3.60
2023-05-09T06:57:36.007Z,3.70
2023-05-09T07:00:05.033Z,3.73
2023-05-09T07:02:32.565Z,3.57
2023-05-09T07:05:00.102Z,3.90
2023-05-09T07:07:27.629Z,3.37
2023-05-09T07:10:00.726Z,3.63
2023-05-09T07:12:35.035Z,3.13
2023-05-09T07:15:02.629Z,3.20
2023-05-09T07:17:30.269Z,3.60
2023-05-09T07:19:57.755Z,3.67
2023-05-09T07:22:25.108Z,3.13
2023-05-09T07:24:52.404Z,3.27
2023-05-09T07:27:19.812Z,4.93
2023-05-09T07:29:49.089Z,3.53
2023-05-09T07:32:16.816Z,3.17
2023-05-09T07:34:44.295Z,3.10
2023-05-09T07:37:13.685Z,2.80
2023-05-09T07:39:42.709Z,3.10
2023-05-09T07:42:10.182Z,3.20
2023-05-09T07:44:37.451Z,3.73
2023-05-09T07:47:05.469Z,2.97
2023-05-09T07:49:32.895Z,3.10
2023-05-09T07:52:00.754Z,3.20
2023-05-09T07:54:28.157Z,3.33
2023-05-09T07:56:55.806Z,3.10
2023-05-09T07:59:23.170Z,3.60
2023-05-09T08:01:50.978Z,3.60
2023-05-09T08:04:18.311Z,3.40
2023-05-09T08:06:45.795Z,2.90
2023-05-09T08:09:13.513Z,2.87
2023-05-09T08:11:40.984Z,2.83
2023-05-09T08:14:08.322Z,3.10
2023-05-09T08:16:35.669Z,2.90
2023-05-09T08:19:03.374Z,3.10
2023-05-09T08:21:30.850Z,3.10
2023-05-09T08:23:58.580Z,3.47
2023-05-09T08:26:26.788Z,3.23
2023-05-09T08:28:54.596Z,2.63
2023-05-09T08:31:22.510Z,3.60
2023-05-09T08:33:49.811Z,3.83
2023-05-09T08:36:17.048Z,3.50
2023-05-09T08:38:44.512Z,3.53
2023-05-09T08:41:11.786Z,4.37
2023-05-09T08:43:40.890Z,3.20
2023-05-09T08:46:10.808Z,2.83
2023-05-09T08:48:38.871Z,3.23
2023-05-09T08:51:07.336Z,3.10
2023-05-09T08:53:35.005Z,3.07
2023-05-09T08:56:03.978Z,3.00
2023-05-09T08:58:33.423Z,3.43
2023-05-09T09:01:06.680Z,3.30
2023-05-09T09:03:34.132Z,3.30
2023-05-09T09:06:01.894Z,3.23
2023-05-09T09:08:31.354Z,3.70
2023-05-09T09:10:58.719Z,3.90
2023-05-09T09:13:26.757Z,3.67
2023-05-09T09:15:58.331Z,3.20
2023-05-09T09:18:29.893Z,3.20
2023-05-09T09:21:04.342Z,3.10
2023-05-09T09:23:33.231Z,3.10
2023-05-09T09:26:02.200Z,3.03
2023-05-09T09:28:30.164Z,3.13
2023-05-09T09:30:57.785Z,3.10
2023-05-09T09:33:27.360Z,2.40
2023-05-09T09:35:56.472Z,2.87
2023-05-09T09:38:25.073Z,3.07
2023-05-09T09:40:58.161Z,2.90
2023-05-09T09:43:29.901Z,3.30
2023-05-09T09:46:00.952Z,3.43
2023-05-09T09:48:33.860Z,3.60
2023-05-09T09:51:10.564Z,3.53
2023-05-09T09:53:42.342Z,3.20
2023-05-09T09:56:09.955Z,2.80
2023-05-09T09:58:37.668Z,3.30
2023-05-09T10:01:06.538Z,5.30
2023-05-09T10:03:45.503Z,4.80
2023-05-09T10:06:15.046Z,3.20
2023-05-09T10:08:44.463Z,3.00
2023-05-09T10:11:12.020Z,2.93
2023-05-09T10:13:39.536Z,3.37
2023-05-09T10:16:08.997Z,3.17
2023-05-09T10:18:37.274Z,2.80
2023-05-09T10:21:06.427Z,2.87
2023-05-09T10:23:38.291Z,3.40
2023-05-09T10:26:18.958Z,3.20
2023-05-09T10:28:49.598Z,3.13
2023-05-09T10:31:25.186Z,2.87
2023-05-09T10:33:53.654Z,3.20
2023-05-09T10:36:23.528Z,2.87
2023-05-09T10:38:55.460Z,3.67
2023-05-09T10:41:23.883Z,3.33
2023-05-09T10:43:51.788Z,3.17
2023-05-09T10:46:19.735Z,3.67
2023-05-09T10:48:48.889Z,3.37
2023-05-09T10:51:17.525Z,3.60
2023-05-09T10:53:45.936Z,3.60
2023-05-09T10:56:24.624Z,3.77
2023-05-09T10:58:52.055Z,3.33
2023-05-09T11:01:38.360Z,3.60
2023-05-09T11:04:14.506Z,3.30
2023-05-09T11:06:43.005Z,4.00
2023-05-09T11:09:33.184Z,3.63
2023-05-09T11:12:04.627Z,3.43
2023-05-09T11:14:35.627Z,3.17
2023-05-09T11:17:05.067Z,3.50
2023-05-09T11:19:56.871Z,3.13
2023-05-09T11:22:38.310Z,3.53
2023-05-09T11:25:14.320Z,3.77
2023-05-09T11:27:50.119Z,3.40
2023-05-09T11:30:19.904Z,4.00
2023-05-09T11:32:55.704Z,3.53
2023-05-09T11:35:26.694Z,3.40
2023-05-09T11:38:04.396Z,3.47
2023-05-09T11:40:33.174Z,3.50
2023-05-09T11:43:01.740Z,3.33
2023-05-09T11:45:32.299Z,3.70
2023-05-09T11:48:01.064Z,3.33
2023-05-09T11:50:28.943Z,2.90
2023-05-09T11:52:56.683Z,3.10
2023-05-09T11:55:25.656Z,3.30
2023-05-09T11:57:54.788Z,3.00
2023-05-09T12:00:24.353Z,3.00
2023-05-09T12:02:52.870Z,2.93
2023-05-09T12:05:22.979Z,2.87
2023-05-09T12:07:51.045Z,3.00
2023-05-09T12:10:25.868Z,3.03
2023-05-09T12:12:57.070Z,2.90
2023-05-09T12:15:24.923Z,2.80
2023-05-09T12:18:09.265Z,2.37
2023-05-09T12:20:44.516Z,2.77
2023-05-09T12:23:15.286Z,3.00
2023-05-09T12:25:52.751Z,2.93
2023-05-09T12:28:22.703Z,2.53
2023-05-09T12:30:51.483Z,2.40
2023-05-09T12:33:19.421Z,2.33
2023-05-09T12:35:48.787Z,2.40
2023-05-09T12:38:23.383Z,2.37
2023-05-09T12:41:04.416Z,2.40
2023-05-09T12:43:36.524Z,2.50
2023-05-09T12:46:04.520Z,2.30
2023-05-09T12:48:38.203Z,2.93
2023-05-09T12:51:06.519Z,2.63
2023-05-09T12:53:39.020Z,2.40
2023-05-09T12:56:14.464Z,2.40
2023-05-09T12:58:52.694Z,2.30
2023-05-09T13:01:28.161Z,2.60
2023-05-09T13:04:04.205Z,2.77
2023-05-09T13:06:32.306Z,2.10
2023-05-09T13:09:02.073Z,2.33
2023-05-09T13:11:29.971Z,2.50
2023-05-09T13:13:58.025Z,2.50
2023-05-09T13:16:25.713Z,2.40
2023-05-09T13:18:53.105Z,2.27
2023-05-09T13:21:21.117Z,2.17
2023-05-09T13:23:50.402Z,2.33
2023-05-09T13:26:17.648Z,2.23
2023-05-09T13:28:44.951Z,2.77
2023-05-09T13:31:12.413Z,2.23
2023-05-09T13:33:39.837Z,2.33
2023-05-09T13:36:07.407Z,2.23
2023-05-09T13:38:38.989Z,2.57
2023-05-09T13:41:10.232Z,2.40
2023-05-09T13:43:38.944Z,2.17
2023-05-09T13:46:06.748Z,2.10
2023-05-09T13:48:34.161Z,2.40
2023-05-09T13:51:01.506Z,2.10
2023-05-09T13:53:28.824Z,2.63
2023-05-09T13:55:56.255Z,2.57
2023-05-09T13:58:23.552Z,2.57
2023-05-09T14:00:51.503Z,2.70
2023-05-09T14:03:18.856Z,2.20
2023-05-09T14:05:46.428Z,2.13
2023-05-09T14:08:14.163Z,2.30
2023-05-09T14:10:41.530Z,2.40
2023-05-09T14:13:08.835Z,2.17
2023-05-09T14:15:36.289Z,2.20
2023-05-09T14:18:03.846Z,1.97
2023-05-09T14:20:31.364Z,2.37
2023-05-09T14:23:00.799Z,2.00
2023-05-09T14:25:28.580Z,2.20
2023-05-09T14:27:56.442Z,2.40
2023-05-09T14:30:25.780Z,2.17
2023-05-09T14:32:53.651Z,2.70
2023-05-09T14:35:21.204Z,2.10
2023-05-09T14:37:48.662Z,2.50
2023-05-09T14:40:16.522Z,2.23
2023-05-09T14:42:44.294Z,2.70
2023-05-09T14:45:12.982Z,2.30
2023-05-09T14:47:41.242Z,2.40
2023-05-09T14:50:11.765Z,2.40
2023-05-09T14:52:39.015Z,2.23
2023-05-09T14:55:07.426Z,2.30
2023-05-09T14:57:35.278Z,1.90
2023-05-09T15:00:16.642Z,2.20
2023-05-09T15:02:48.573Z,2.47
2023-05-09T15:05:16.933Z,2.23
2023-05-09T15:07:44.374Z,2.20
2023-05-09T15:10:12.279Z,2.37
2023-05-09T15:12:39.956Z,2.20
2023-05-09T15:15:18.795Z,2.30
2023-05-09T15:17:47.286Z,2.50
2023-05-09T15:20:15.857Z,2.40
2023-05-09T15:22:44.048Z,2.00
2023-05-09T15:25:11.860Z,2.30
2023-05-09T15:27:40.067Z,1.93
2023-05-09T15:30:08.603Z,2.10
2023-05-09T15:32:41.649Z,2.37
2023-05-09T15:35:09.503Z,2.10
2023-05-09T15:37:37.132Z,1.73
2023-05-09T15:40:05.249Z,2.00
2023-05-09T15:42:32.626Z,2.07
2023-05-09T15:44:59.990Z,2.33
2023-05-09T15:47:27.625Z,2.10
2023-05-09T15:49:54.947Z,2.10
2023-05-09T15:52:22.745Z,1.73
2023-05-09T15:54:50.843Z,2.57
2023-05-09T15:57:18.329Z,2.10
2023-05-09T15:59:45.860Z,1.90
2023-05-09T16:02:13.335Z,2.20
2023-05-09T16:04:41.417Z,2.00
2023-05-09T16:07:08.936Z,2.17
2023-05-09T16:09:37.253Z,2.33
2023-05-09T16:12:06.513Z,2.27
2023-05-09T16:14:33.918Z,1.77
2023-05-09T16:17:04.588Z,2.00
2023-05-09T16:19:33.755Z,2.40
2023-05-09T16:22:03.158Z,2.00
2023-05-09T16:24:31.906Z,2.23
2023-05-09T16:26:59.663Z,2.43
2023-05-09T16:29:28.434Z,2.07
2023-05-09T16:31:55.966Z,2.10
2023-05-09T16:34:23.875Z,2.13
2023-05-09T16:36:52.598Z,2.20
2023-05-09T16:39:20.110Z,2.50
2023-05-09T16:41:47.495Z,2.53
2023-05-09T16:44:15.356Z,2.63
2023-05-09T16:46:43.095Z,2.27
2023-05-09T16:49:11.034Z,2.43
2023-05-09T16:51:38.603Z,2.40
2023-05-09T16:54:05.934Z,2.10
2023-05-09T16:56:33.952Z,1.93
2023-05-09T16:59:01.494Z,2.20
2023-05-09T17:01:29.312Z,2.50
2023-05-09T17:03:57.161Z,2.20
2023-05-09T17:06:24.916Z,2.20
2023-05-09T17:08:52.906Z,2.27
2023-05-09T17:11:21.936Z,1.93
2023-05-09T17:13:49.608Z,2.13
2023-05-09T17:16:17.040Z,2.20
2023-05-09T17:18:47.634Z,2.13
2023-05-09T17:21:16.072Z,2.10
2023-05-09T17:23:44.153Z,1.93
2023-05-09T17:26:11.787Z,2.00
2023-05-09T17:28:39.171Z,2.30
2023-05-09T17:31:06.649Z,1.80
2023-05-09T17:33:34.164Z,2.27
2023-05-09T17:36:01.602Z,1.93
2023-05-09T17:38:29.341Z,1.93
2023-05-09T17:40:57.161Z,2.27
2023-05-09T17:43:24.680Z,1.90
2023-05-09T17:45:52.477Z,1.90
2023-05-09T17:48:20.569Z,2.00
2023-05-09T17:50:48.328Z,2.17
2023-05-09T17:53:15.634Z,5.87
2023-05-09T17:55:44.792Z,2.17
2023-05-09T17:58:12.296Z,1.90
2023-05-09T18:00:39.947Z,1.83
2023-05-09T18:03:09.554Z,1.87
2023-05-09T18:05:36.947Z,2.20
2023-05-09T18:08:04.552Z,2.00
2023-05-09T18:10:32.026Z,2.33
2023-05-09T18:12:59.739Z,2.00
2023-05-09T18:15:27.476Z,1.80
2023-05-09T18:17:55.059Z,1.93
2023-05-09T18:20:22.667Z,2.00
2023-05-09T18:22:50.175Z,2.33
2023-05-09T18:25:17.600Z,2.00
2023-05-09T18:27:44.997Z,2.10
2023-05-09T18:30:12.824Z,2.20
2023-05-09T18:32:41.088Z,2.33
2023-05-09T18:35:09.123Z,2.33
2023-05-09T18:37:36.916Z,2.30
2023-05-09T18:40:05.587Z,2.30
2023-05-09T18:42:32.896Z,2.20
2023-05-09T18:45:00.906Z,2.37
2023-05-09T18:47:28.312Z,2.43
2023-05-09T18:49:55.971Z,2.20
2023-05-09T18:52:23.371Z,2.77
2023-05-09T18:54:51.034Z,2.30
2023-05-09T18:57:19.627Z,2.40
2023-05-09T18:59:47.246Z,2.60
2023-05-09T19:02:15.249Z,2.73
2023-05-09T19:04:42.651Z,2.20
2023-05-09T19:07:10.198Z,2.80
2023-05-09T19:09:37.713Z,2.50
2023-05-09T19:12:05.977Z,2.30
2023-05-09T19:14:33.655Z,2.33
2023-05-09T19:17:01.601Z,2.50
2023-05-09T19:19:29.058Z,2.40
2023-05-09T19:21:56.576Z,2.40
2023-05-09T19:24:23.886Z,2.50
2023-05-09T19:26:51.281Z,2.83
2023-05-09T19:29:18.526Z,2.60
2023-05-09T19:31:45.874Z,3.10
2023-05-09T19:34:13.696Z,2.67
2023-05-09T19:36:41.230Z,2.63
2023-05-09T19:39:09.187Z,2.80
2023-05-09T19:41:36.609Z,2.80
2023-05-09T19:44:04.204Z,2.93
2023-05-09T19:46:31.680Z,3.07
2023-05-09T19:48:59.378Z,2.73
2023-05-09T19:51:27.002Z,2.90
2023-05-09T19:53:54.428Z,3.03
2023-05-09T19:56:23.235Z,2.90
2023-05-09T19:58:50.974Z,2.80
2023-05-09T20:01:19.422Z,2.97
2023-05-09T20:03:47.310Z,3.00
2023-05-09T20:06:14.645Z,2.90
2023-05-09T20:08:42.002Z,3.13
2023-05-09T20:11:09.307Z,2.97
2023-05-09T20:13:36.905Z,3.07
2023-05-09T20:16:04.480Z,3.13
2023-05-09T20:18:34.719Z,3.27
2023-05-09T20:21:03.009Z,3.20
2023-05-09T20:23:31.310Z,3.07
2023-05-09T20:25:59.098Z,2.73
2023-05-09T20:28:26.379Z,3.30
2023-05-09T20:30:54.160Z,2.63
2023-05-09T20:33:21.786Z,2.70
2023-05-09T20:35:49.429Z,2.80
2023-05-09T20:38:16.758Z,2.80
2023-05-09T20:40:44.013Z,3.07
2023-05-09T20:43:11.355Z,2.90
2023-05-09T20:45:38.984Z,2.80
2023-05-09T20:48:06.845Z,2.80
2023-05-09T20:50:34.259Z,2.67
2023-05-09T20:53:01.808Z,2.93
2023-05-09T20:55:29.030Z,2.60
2023-05-09T20:57:56.704Z,3.00
2023-05-09T21:00:24.078Z,2.80
2023-05-09T21:02:51.475Z,3.20
2023-05-09T21:05:18.987Z,2.90
2023-05-09T21:07:46.649Z,3.07
2023-05-09T21:10:14.050Z,3.30
2023-05-09T21:12:41.668Z,3.30
2023-05-09T21:15:09.600Z,2.80
2023-05-09T21:17:36.965Z,3.07
2023-05-09T21:20:04.656Z,3.03
2023-05-09T21:22:32.191Z,3.33
2023-05-09T21:24:59.449Z,3.40
2023-05-09T21:27:27.517Z,3.10
2023-05-09T21:29:54.747Z,2.70
2023-05-09T21:32:22.060Z,3.10
2023-05-09T21:34:49.957Z,3.07
2023-05-09T21:37:17.331Z,3.17
2023-05-09T21:39:45.304Z,3.20
2023-05-09T21:42:12.925Z,3.40
2023-05-09T21:44:40.360Z,3.03
2023-05-09T21:47:08.153Z,3.10
2023-05-09T21:49:35.510Z,3.50
2023-05-09T21:52:03.421Z,3.57
2023-05-09T21:54:30.726Z,3.47
2023-05-09T21:56:58.124Z,3.50
2023-05-09T21:59:26.405Z,3.50
2023-05-09T22:01:53.691Z,3.30
2023-05-09T22:04:21.111Z,3.53
2023-05-09T22:06:48.616Z,3.80
2023-05-09T22:09:16.012Z,3.60
2023-05-09T22:11:43.383Z,3.77
2023-05-09T22:14:11.392Z,3.57
2023-05-09T22:16:38.910Z,3.20
2023-05-09T22:19:06.556Z,3.47
2023-05-09T22:21:33.845Z,3.63
2023-05-09T22:24:01.357Z,3.40
2023-05-09T22:26:28.610Z,3.80
2023-05-09T22:28:56.409Z,3.30
2023-05-09T22:31:23.800Z,3.83
2023-05-09T22:33:51.531Z,4.37
2023-05-09T22:36:19.867Z,3.57
2023-05-09T22:38:47.316Z,3.70
2023-05-09T22:41:15.109Z,3.90
2023-05-09T22:43:42.399Z,3.50
2023-05-09T22:46:10.303Z,3.50
2023-05-09T22:48:37.791Z,3.50
2023-05-09T22:51:05.243Z,3.70
2023-05-09T22:53:32.824Z,3.90
2023-05-09T22:56:00.121Z,3.60
2023-05-09T22:58:27.535Z,3.73
2023-05-09T23:00:54.834Z,3.70
2023-05-09T23:03:22.221Z,3.70
2023-05-09T23:05:49.826Z,3.43
2023-05-09T23:08:17.283Z,3.37
2023-05-09T23:10:44.746Z,3.07
2023-05-09T23:13:12.472Z,3.57
2023-05-09T23:15:39.987Z,3.63
2023-05-09T23:18:07.602Z,3.47
2023-05-09T23:20:36.345Z,3.67
2023-05-09T23:23:03.711Z,3.53
2023-05-09T23:25:30.989Z,3.27
2023-05-09T23:27:58.505Z,3.23
2023-05-09T23:30:25.808Z,3.40
2023-05-09T23:32:53.159Z,3.30
2023-05-09T23:35:21.681Z,3.60
2023-05-09T23:37:49.178Z,3.60
2023-05-09T23:40:16.728Z,3.03
2023-05-09T23:42:44.198Z,3.40
2023-05-09T23:45:13.041Z,3.40
2023-05-09T23:47:40.508Z,3.40
2023-05-09T23:50:08.407Z,3.57
2023-05-09T23:52:36.572Z,3.50
2023-05-09T23:55:04.408Z,3.37
2023-05-09T23:57:31.927Z,3.07
2023-05-09T23:59:59.793Z,3.37
